Time;durP1;ratioP1;P1;durP2;ratioP2;P2;SDS_P1;SDS_P2;PMS_P1;PMS_P2;Temp;Humidity;BMP_temperature;BMP_pressure;BME280_temperature;BME280_humidity;BME280_pressure;Samples;Min_cycle;Max_cycle;Signal;HPM_P1;HPM_P2
2021/07/12 00:00:20;;;;;;;11.38;8.88;;;;;;;14.61;83.81;100915.03;4902784;29;20067;-78
2021/07/12 00:02:48;;;;;;;11.18;8.85;;;;;;;14.64;84.55;100909.59;4918347;29;20052;-79
2021/07/12 00:05:18;;;;;;;13.15;9.32;;;;;;;14.67;84.21;100916.50;4902677;29;20128;-77
2021/07/12 00:07:47;;;;;;;11.80;9.27;;;;;;;14.61;84.50;100915.03;4902538;29;20049;-77
2021/07/12 00:10:17;;;;;;;12.13;8.75;;;;;;;14.57;84.21;100889.81;4905684;29;20040;-77
2021/07/12 00:12:45;;;;;;;11.70;8.65;;;;;;;14.64;84.32;100911.41;4917536;29;20074;-78
2021/07/12 00:15:13;;;;;;;14.50;10.38;;;;;;;14.62;84.80;100914.06;4917631;29;20107;-77
2021/07/12 00:17:40;;;;;;;10.50;8.52;;;;;;;14.61;84.50;100901.03;4918029;29;20126;-78
2021/07/12 00:20:07;;;;;;;12.38;9.30;;;;;;;14.57;83.79;100908.22;4913776;29;20108;-77
2021/07/12 00:22:33;;;;;;;13.20;10.00;;;;;;;14.51;84.10;100904.16;4898708;29;20053;-77
2021/07/12 00:25:00;;;;;;;11.98;8.63;;;;;;;14.62;83.93;100894.84;4898363;29;20492;-78
2021/07/12 00:27:26;;;;;;;11.75;9.35;;;;;;;14.55;84.07;100889.91;4899004;29;20045;-78
2021/07/12 00:29:52;;;;;;;12.88;10.77;;;;;;;14.49;84.15;100886.75;4899267;29;20060;-78
2021/07/12 00:32:19;;;;;;;11.65;9.88;;;;;;;14.56;83.93;100896.88;4898829;29;20072;-78
2021/07/12 00:34:45;;;;;;;14.88;11.07;;;;;;;14.54;84.43;100890.00;4895722;29;20055;-78
2021/07/12 00:37:11;;;;;;;13.88;11.48;;;;;;;14.53;83.99;100896.19;4899895;29;20051;-78
2021/07/12 00:39:37;;;;;;;14.95;11.95;;;;;;;14.31;84.41;100850.00;4898488;29;20712;-78
2021/07/12 00:42:03;;;;;;;15.88;12.23;;;;;;;14.53;84.18;100877.78;4899619;29;20081;-77
2021/07/12 00:44:29;;;;;;;15.23;12.20;;;;;;;14.52;84.67;100870.84;4898828;29;20124;-77
2021/07/12 00:46:56;;;;;;;17.67;12.95;;;;;;;14.55;84.68;100879.41;4898648;29;20056;-78
2021/07/12 00:49:22;;;;;;;14.52;11.32;;;;;;;14.56;84.09;100873.22;4898441;29;20044;-77
2021/07/12 00:51:50;;;;;;;14.70;12.05;;;;;;;14.58;84.58;100873.13;4893976;29;20513;-78
2021/07/12 00:54:16;;;;;;;12.55;11.20;;;;;;;14.57;84.30;100872.31;4884293;29;20469;-78
2021/07/12 00:56:42;;;;;;;18.05;13.73;;;;;;;14.54;84.59;100876.88;4898637;29;20048;-78
2021/07/12 00:59:09;;;;;;;16.38;13.73;;;;;;;14.58;85.21;100876.59;4899004;29;20442;-78
2021/07/12 01:01:35;;;;;;;16.33;12.85;;;;;;;14.50;84.92;100855.16;4898173;29;20080;-78
2021/07/12 01:04:02;;;;;;;18.85;14.30;;;;;;;14.62;84.88;100868.56;4898436;29;20048;-77
2021/07/12 01:06:29;;;;;;;15.90;13.35;;;;;;;14.57;84.85;100868.81;4899753;29;20060;-78
2021/07/12 01:08:55;;;;;;;18.65;14.75;;;;;;;14.49;84.86;100869.22;4900242;29;20056;-78
2021/07/12 01:11:41;;;;;;;18.98;14.32;;;;;;;14.49;85.38;100865.72;4898401;29;20041;-78
2021/07/12 01:14:26;;;;;;;16.38;13.48;;;;;;;14.53;84.88;100868.13;4897942;29;20108;-78
2021/07/12 01:17:15;;;;;;;18.38;14.50;;;;;;;14.58;84.84;100867.88;4899173;29;20053;-78
2021/07/12 01:20:11;;;;;;;18.77;13.80;;;;;;;14.49;84.81;100853.47;4898765;29;20052;-78
2021/07/12 01:22:49;;;;;;;16.98;13.43;;;;;;;14.54;84.93;100853.22;4899466;29;20049;-78
2021/07/12 01:25:46;;;;;;;16.60;13.35;;;;;;;14.53;84.74;100859.41;4908331;29;20162;-78
2021/07/12 01:28:54;;;;;;;20.85;13.52;;;;;;;14.57;85.16;100860.94;4900508;29;20045;-79
2021/07/12 01:31:58;;;;;;;22.08;14.95;;;;;;;14.55;85.55;100861.03;4905373;29;20053;-79
2021/07/12 01:34:34;;;;;;;19.50;15.90;;;;;;;14.52;85.60;100855.06;4897522;29;20049;-78
2021/07/12 01:37:12;;;;;;;15.88;14.02;;;;;;;14.55;85.15;100852.31;4897818;29;20064;-78
2021/07/12 01:39:48;;;;;;;19.33;15.73;;;;;;;14.36;86.26;100842.72;4897681;29;20493;-79
2021/07/12 01:42:22;;;;;;;17.70;14.32;;;;;;;14.33;86.33;100837.66;4898848;29;20049;-78
2021/07/12 01:45:08;;;;;;;18.17;15.15;;;;;;;14.38;85.93;100848.75;4898417;29;20386;-79
2021/07/12 01:47:50;;;;;;;17.83;15.00;;;;;;;14.23;86.42;100824.16;4898369;29;20055;-79
2021/07/12 01:50:41;;;;;;;16.75;13.02;;;;;;;14.37;85.99;100844.44;4896926;29;20097;-78
2021/07/12 01:53:16;;;;;;;16.80;13.02;;;;;;;14.32;86.32;100832.47;4897820;29;20045;-78
2021/07/12 01:56:00;;;;;;;17.80;13.80;;;;;;;14.37;85.98;100847.06;4898105;29;20405;-78
2021/07/12 01:58:45;;;;;;;19.42;14.25;;;;;;;14.34;86.38;100849.00;4898523;29;20132;-78
2021/07/12 02:01:13;;;;;;;19.92;15.25;;;;;;;14.35;86.68;100840.19;4902719;29;20056;-79
2021/07/12 02:03:39;;;;;;;22.75;15.82;;;;;;;14.40;87.19;100843.44;4904430;29;20040;-78
2021/07/12 02:06:09;;;;;;;20.98;15.57;;;;;;;14.40;86.43;100840.78;4904833;29;20053;-79
2021/07/12 02:08:43;;;;;;;19.27;15.07;;;;;;;14.34;86.80;100836.72;4904502;29;20052;-78
2021/07/12 02:11:09;;;;;;;21.73;15.90;;;;;;;14.28;86.87;100837.06;4892999;29;20049;-79
2021/07/12 02:13:37;;;;;;;20.77;16.27;;;;;;;14.25;86.63;100837.19;4902396;29;20096;-79
2021/07/12 02:16:05;;;;;;;21.00;15.80;;;;;;;14.27;87.02;100842.38;4901933;29;20056;-78
2021/07/12 02:18:34;;;;;;;19.58;15.75;;;;;;;14.37;87.19;100844.44;4900100;29;20044;-79
2021/07/12 02:21:01;;;;;;;21.90;16.10;;;;;;;14.35;86.73;100841.03;4902345;29;20416;-78
2021/07/12 02:23:29;;;;;;;16.42;13.68;;;;;;;14.41;86.60;100839.88;4905995;29;20052;-77
2021/07/12 02:25:55;;;;;;;20.98;14.20;;;;;;;14.30;86.34;100824.66;4902031;29;20048;-78
2021/07/12 02:28:23;;;;;;;18.77;14.13;;;;;;;14.32;86.37;100838.56;4902807;29;20049;-77
2021/07/12 02:30:50;;;;;;;22.08;16.10;;;;;;;14.34;86.29;100836.72;4903129;29;20055;-78
2021/07/12 02:33:17;;;;;;;16.83;13.65;;;;;;;14.27;85.86;100816.09;4918743;29;20055;-75
2021/07/12 02:35:45;;;;;;;20.55;15.13;;;;;;;14.37;86.35;100833.94;4922432;29;20401;-76
2021/07/12 02:38:13;;;;;;;19.60;15.15;;;;;;;14.35;85.24;100825.28;4907786;29;20052;-77
2021/07/12 02:40:40;;;;;;;18.98;13.65;;;;;;;14.22;85.56;100809.31;4903151;29;20044;-77
2021/07/12 02:43:07;;;;;;;22.58;16.60;;;;;;;14.29;86.03;100830.00;4900711;29;20054;-78
2021/07/12 02:45:38;;;;;;;21.92;16.02;;;;;;;14.18;85.29;100806.94;4901433;29;20079;-77
2021/07/12 02:48:04;;;;;;;19.27;15.43;;;;;;;14.21;85.54;100809.41;4901136;29;20055;-77
2021/07/12 02:50:31;;;;;;;19.75;16.25;;;;;;;14.20;85.92;100820.84;4901041;29;20056;-77
2021/07/12 02:53:29;;;;;;;18.83;15.48;;;;;;;14.34;85.21;100823.59;4900456;29;20064;-78
2021/07/12 02:55:56;;;;;;;21.58;16.00;;;;;;;14.19;85.57;100804.22;4896024;29;20048;-77
2021/07/12 02:58:22;;;;;;;19.58;15.70;;;;;;;14.37;85.54;100825.22;4899372;29;20048;-77
2021/07/12 03:00:48;;;;;;;20.17;16.58;;;;;;;14.40;85.21;100817.16;4901100;29;20122;-77
2021/07/12 03:03:15;;;;;;;25.08;19.15;;;;;;;14.33;85.19;100803.53;4900870;29;20052;-77
2021/07/12 03:05:42;;;;;;;26.77;18.88;;;;;;;14.50;85.31;100820.16;4900799;29;20055;-77
2021/07/12 03:08:17;;;;;;;29.17;20.38;;;;;;;14.43;85.80;100811.75;4900790;29;20136;-78
2021/07/12 03:10:54;;;;;;;30.30;21.33;;;;;;;14.42;85.32;100804.81;4900843;29;20178;-77
2021/07/12 03:13:39;;;;;;;27.55;19.95;;;;;;;14.53;85.37;100812.13;4900358;29;20053;-77
2021/07/12 03:16:06;;;;;;;28.80;20.17;;;;;;;14.46;84.87;100795.00;4900469;29;20049;-77
2021/07/12 03:18:43;;;;;;;30.50;20.88;;;;;;;14.56;84.90;100809.31;4898655;29;20239;-77
2021/07/12 03:21:09;;;;;;;26.50;19.42;;;;;;;14.51;85.44;100798.22;4900177;29;20045;-77
2021/07/12 03:23:40;;;;;;;25.67;19.70;;;;;;;14.56;85.28;100798.81;4899969;29;20071;-77
2021/07/12 03:26:09;;;;;;;25.83;18.60;;;;;;;14.57;85.07;100787.38;4900224;29;20089;-77
2021/07/12 03:28:36;;;;;;;26.38;18.95;;;;;;;14.52;85.26;100800.75;4900032;29;20049;-77
2021/07/12 03:31:04;;;;;;;28.35;20.08;;;;;;;14.50;85.64;100794.75;4900158;29;20051;-77
2021/07/12 03:33:32;;;;;;;28.13;20.77;;;;;;;14.47;86.07;100792.28;4900005;29;20091;-77
2021/07/12 03:36:00;;;;;;;23.92;18.50;;;;;;;14.50;85.64;100792.13;4899726;29;20056;-77
2021/07/12 03:38:27;;;;;;;26.92;19.73;;;;;;;14.48;85.60;100786.09;4901271;29;20049;-77
2021/07/12 03:40:53;;;;;;;30.50;20.80;;;;;;;14.47;86.13;100783.56;4901934;29;20053;-77
2021/07/12 03:43:20;;;;;;;22.85;18.35;;;;;;;14.44;85.71;100773.19;4921287;29;20032;-77
2021/07/12 03:45:58;;;;;;;27.65;20.00;;;;;;;14.59;85.61;100793.41;4923097;29;20067;-76
2021/07/12 03:48:41;;;;;;;25.00;18.40;;;;;;;14.65;85.38;100792.25;4899897;29;20044;-77
2021/07/12 03:51:12;;;;;;;24.55;18.83;;;;;;;14.63;85.35;100794.09;4898846;29;20058;-77
2021/07/12 03:53:38;;;;;;;22.52;16.83;;;;;;;14.68;85.05;100792.97;4898493;29;20354;-77
2021/07/12 03:56:05;;;;;;;25.45;17.90;;;;;;;14.54;85.19;100772.63;4898995;29;20048;-77
2021/07/12 03:58:34;;;;;;;22.60;16.60;;;;;;;14.65;85.19;100801.00;4900424;29;20049;-77
2021/07/12 04:01:00;;;;;;;23.95;16.60;;;;;;;14.63;85.29;100797.56;4900432;29;20057;-78
2021/07/12 04:03:27;;;;;;;23.40;16.60;;;;;;;14.46;85.40;100776.59;4900114;29;20096;-77
2021/07/12 04:05:53;;;;;;;23.63;16.08;;;;;;;14.64;85.14;100787.91;4901096;29;20056;-77
2021/07/12 04:08:20;;;;;;;23.73;15.95;;;;;;;14.73;84.80;100798.81;4900170;29;20129;-77
2021/07/12 04:10:49;;;;;;;21.05;16.02;;;;;;;14.77;84.78;100804.75;4900600;29;20116;-77
2021/07/12 04:13:15;;;;;;;21.05;16.17;;;;;;;14.77;84.80;100796.88;4899463;29;20048;-77
2021/07/12 04:15:42;;;;;;;23.10;15.65;;;;;;;14.77;84.79;100803.88;4897969;29;20064;-77
2021/07/12 04:18:08;;;;;;;22.60;16.67;;;;;;;14.70;84.58;100800.75;4899684;29;20044;-77
2021/07/12 04:20:34;;;;;;;19.88;14.85;;;;;;;14.54;84.80;100779.69;4899303;29;20048;-77
2021/07/12 04:23:01;;;;;;;19.23;15.75;;;;;;;14.71;84.98;100803.28;4898724;29;20045;-77
2021/07/12 04:25:27;;;;;;;19.60;14.75;;;;;;;14.79;84.14;100807.28;4899089;29;20108;-77
2021/07/12 04:27:55;;;;;;;17.35;13.38;;;;;;;14.79;84.17;100816.00;4898833;29;20052;-77
2021/07/12 04:30:24;;;;;;;19.42;14.35;;;;;;;14.79;84.32;100810.75;4914569;29;20059;-77
2021/07/12 04:32:50;;;;;;;19.63;14.07;;;;;;;14.70;84.20;100792.88;4900453;29;20056;-77
2021/07/12 04:35:17;;;;;;;16.33;13.40;;;;;;;14.72;84.20;100796.25;4899404;29;20060;-77
2021/07/12 04:37:43;;;;;;;17.05;14.43;;;;;;;14.83;84.07;100814.91;4898472;29;20216;-77
2021/07/12 04:40:10;;;;;;;17.88;14.30;;;;;;;14.80;84.37;100808.97;4912338;29;20050;-77
2021/07/12 04:42:36;;;;;;;20.15;15.05;;;;;;;14.79;84.52;100812.53;4898382;29;20048;-77
2021/07/12 04:45:04;;;;;;;20.10;13.77;;;;;;;14.53;84.45;100773.56;4899113;29;20052;-77
2021/07/12 04:47:30;;;;;;;16.40;13.77;;;;;;;14.79;84.35;100813.38;4898105;29;20066;-77
2021/07/12 04:50:01;;;;;;;16.17;12.38;;;;;;;14.83;83.90;100806.16;4899731;29;20135;-78
2021/07/12 04:52:29;;;;;;;15.90;13.43;;;;;;;14.74;83.87;100804.91;4899339;29;20118;-78
2021/07/12 04:54:55;;;;;;;18.00;13.93;;;;;;;14.75;84.31;100813.66;4899066;29;20064;-78
2021/07/12 04:57:21;;;;;;;16.70;12.68;;;;;;;14.59;84.12;100790.78;4898629;29;20044;-78
2021/07/12 04:59:48;;;;;;;15.40;11.63;;;;;;;14.80;84.14;100809.81;4898441;29;20056;-78
2021/07/12 05:02:14;;;;;;;14.60;11.70;;;;;;;14.82;83.79;100821.09;4899145;29;20048;-78
2021/07/12 05:04:41;;;;;;;16.17;12.13;;;;;;;14.73;83.79;100806.69;4897492;29;20051;-78
2021/07/12 05:07:13;;;;;;;18.02;12.55;;;;;;;14.75;84.06;100811.03;4897871;29;20052;-78
2021/07/12 05:09:39;;;;;;;20.10;12.93;;;;;;;14.69;84.07;100806.94;4898659;29;20056;-77
2021/07/12 05:12:10;;;;;;;16.90;12.98;;;;;;;14.74;84.55;100815.41;4897636;29;20104;-77
2021/07/12 05:14:37;;;;;;;15.77;12.48;;;;;;;14.75;84.23;100814.47;4899200;29;20045;-77
2021/07/12 05:17:04;;;;;;;17.35;13.30;;;;;;;14.66;84.32;100813.19;4899284;29;20131;-77
2021/07/12 05:19:31;;;;;;;16.25;13.35;;;;;;;14.73;84.42;100816.34;4898108;29;20053;-77
2021/07/12 05:21:57;;;;;;;16.95;13.45;;;;;;;14.70;84.57;100806.84;4899368;29;20053;-76
2021/07/12 05:24:23;;;;;;;18.27;12.80;;;;;;;14.74;84.59;100815.41;4899284;29;20048;-77
2021/07/12 05:26:49;;;;;;;19.20;13.85;;;;;;;14.68;85.01;100813.97;4899257;29;20100;-76
2021/07/12 05:29:17;;;;;;;19.27;14.02;;;;;;;14.61;85.41;100806.44;4897982;29;20060;-77
2021/07/12 05:31:43;;;;;;;19.02;14.65;;;;;;;14.48;85.47;100785.25;4898340;29;20085;-77
2021/07/12 05:34:09;;;;;;;18.42;13.27;;;;;;;14.71;85.18;100813.78;4897496;29;20072;-77
2021/07/12 05:36:35;;;;;;;16.70;12.68;;;;;;;14.76;84.92;100807.44;4901616;29;20060;-77
2021/07/12 05:39:01;;;;;;;18.52;13.98;;;;;;;14.71;85.17;100799.81;4902013;29;20143;-77
2021/07/12 05:41:27;;;;;;;19.30;12.82;;;;;;;14.64;85.11;100787.91;4901705;29;20476;-77
2021/07/12 05:43:54;;;;;;;18.63;13.60;;;;;;;14.76;84.79;100808.31;4901944;29;20056;-77
2021/07/12 05:46:19;;;;;;;16.35;13.13;;;;;;;14.62;84.61;100782.72;4901124;29;20104;-77
2021/07/12 05:48:45;;;;;;;18.33;13.02;;;;;;;14.65;85.20;100797.50;4916049;29;20044;-77
2021/07/12 05:51:11;;;;;;;15.55;12.35;;;;;;;14.75;84.83;100808.38;4900025;29;20059;-77
2021/07/12 05:53:37;;;;;;;19.48;13.07;;;;;;;14.77;85.03;100811.75;4901514;29;20108;-76
2021/07/12 05:56:04;;;;;;;20.33;13.18;;;;;;;14.77;84.94;100820.50;4902323;29;20049;-77
2021/07/12 05:58:30;;;;;;;20.52;13.23;;;;;;;14.72;85.27;100814.63;4901737;29;20059;-76
2021/07/12 06:01:05;;;;;;;17.40;13.35;;;;;;;14.61;85.26;100801.19;4901277;29;20060;-76
2021/07/12 06:03:33;;;;;;;17.30;13.50;;;;;;;14.73;85.66;100825.09;4901837;29;20045;-77
2021/07/12 06:06:01;;;;;;;17.70;13.25;;;;;;;14.76;85.22;100824.06;4915185;29;20060;-77
2021/07/12 06:08:27;;;;;;;20.30;14.32;;;;;;;14.75;85.57;100834.66;4915951;29;20045;-76
2021/07/12 06:10:53;;;;;;;18.33;12.98;;;;;;;14.68;85.21;100811.34;4921648;29;20079;-76
2021/07/12 06:13:19;;;;;;;21.33;14.82;;;;;;;14.65;85.43;100808.00;4914702;29;20055;-77
2021/07/12 06:15:46;;;;;;;19.05;13.48;;;;;;;14.78;85.47;100819.59;4919030;29;20049;-76
2021/07/12 06:18:14;;;;;;;16.95;13.50;;;;;;;14.84;85.45;100826.28;4918070;29;20052;-77
2021/07/12 06:20:41;;;;;;;16.92;13.75;;;;;;;14.89;85.38;100819.84;4918532;29;20048;-77
2021/07/12 06:23:07;;;;;;;21.15;13.93;;;;;;;14.91;85.44;100822.38;4918802;29;20478;-77
2021/07/12 06:25:33;;;;;;;17.55;13.57;;;;;;;15.01;85.06;100825.34;4929808;29;20056;-77
2021/07/12 06:27:59;;;;;;;20.20;13.68;;;;;;;14.97;84.49;100805.44;4926499;29;20100;-77
2021/07/12 06:30:26;;;;;;;16.60;13.52;;;;;;;15.11;84.22;100826.56;4907551;29;20081;-77
2021/07/12 06:32:52;;;;;;;20.38;13.35;;;;;;;15.12;84.11;100833.50;4909183;29;20049;-77
2021/07/12 06:35:21;;;;;;;16.67;12.40;;;;;;;14.96;84.54;100809.81;4910235;29;20081;-77
2021/07/12 06:37:48;;;;;;;15.82;12.52;;;;;;;15.10;84.56;100829.25;4908945;29;20049;-77
2021/07/12 06:40:15;;;;;;;17.10;13.52;;;;;;;15.09;84.73;100830.19;4908205;29;20052;-78
2021/07/12 06:42:41;;;;;;;14.48;11.80;;;;;;;14.89;84.78;100804.06;4903067;29;20045;-78
2021/07/12 06:45:07;;;;;;;15.10;10.93;;;;;;;15.02;84.79;100832.31;4901880;29;20064;-78
2021/07/12 06:47:34;;;;;;;15.10;11.05;;;;;;;15.13;84.91;100829.09;4901882;29;20052;-78
2021/07/12 06:50:00;;;;;;;14.43;10.95;;;;;;;15.10;83.98;100824.84;4902402;29;20051;-78
2021/07/12 06:52:26;;;;;;;13.52;11.43;;;;;;;15.20;84.29;100831.28;4902719;29;20072;-79
2021/07/12 06:54:52;;;;;;;13.23;10.85;;;;;;;15.21;84.35;100837.41;4919693;29;20069;-75
2021/07/12 06:57:18;;;;;;;13.85;10.93;;;;;;;15.16;84.15;100834.16;4921033;29;20060;-75
2021/07/12 06:59:45;;;;;;;13.68;10.73;;;;;;;15.08;84.23;100828.50;4901934;29;20062;-76
2021/07/12 07:02:11;;;;;;;13.68;10.57;;;;;;;14.99;84.48;100814.94;4901475;29;20048;-76
2021/07/12 07:04:41;;;;;;;14.52;11.57;;;;;;;15.19;84.37;100842.75;4904135;29;20049;-75
2021/07/12 07:07:08;;;;;;;12.85;9.88;;;;;;;15.17;83.98;100822.72;4895359;29;20045;-75
2021/07/12 07:12:53;;;;;;;13.75;10.13;;;;;;;15.17;84.26;100841.13;4905940;29;20049;-77
2021/07/12 07:15:19;;;;;;;12.98;10.13;;;;;;;15.05;84.08;100827.72;4904106;29;20048;-77
2021/07/12 07:17:47;;;;;;;12.38;9.35;;;;;;;15.08;84.36;100821.47;4902219;29;20531;-76
2021/07/12 07:20:13;;;;;;;12.55;9.90;;;;;;;15.21;84.45;100842.69;4902349;29;20087;-72
2021/07/12 07:22:40;;;;;;;12.80;8.63;;;;;;;15.21;84.30;100838.25;4900090;29;20044;-72
2021/07/12 07:25:06;;;;;;;10.55;8.85;;;;;;;15.35;84.60;100849.78;4899896;29;20056;-76
2021/07/12 07:27:33;;;;;;;14.68;9.18;;;;;;;15.39;83.87;100851.28;4902805;29;20053;-77
2021/07/12 07:29:59;;;;;;;14.32;9.25;;;;;;;15.37;84.71;100859.28;4904244;29;20130;-77
2021/07/12 07:32:25;;;;;;;12.77;8.00;;;;;;;15.44;83.40;100849.28;4917865;29;20056;-76
2021/07/12 07:34:52;;;;;;;9.25;7.40;;;;;;;15.49;83.17;100857.75;4902121;29;20045;-77
2021/07/12 07:37:18;;;;;;;9.73;6.70;;;;;;;15.35;83.27;100837.47;4902162;29;20516;-76
2021/07/12 07:39:47;;;;;;;10.32;7.88;;;;;;;15.41;84.18;100856.50;4904502;29;20064;-76
2021/07/12 07:42:17;;;;;;;10.20;7.55;;;;;;;15.28;84.29;100854.56;4901434;29;20528;-76
2021/07/12 07:44:43;;;;;;;7.38;5.93;;;;;;;15.38;83.89;100860.16;4900631;29;20485;-76
2021/07/12 07:47:10;;;;;;;10.82;6.82;;;;;;;15.38;83.56;100857.53;4893766;29;20057;-76
2021/07/12 07:49:38;;;;;;;11.25;7.80;;;;;;;15.42;83.85;100860.81;4882567;29;20049;-76
2021/07/12 07:52:06;;;;;;;7.30;6.13;;;;;;;15.45;83.40;100861.50;4883091;29;20418;-75
2021/07/12 07:54:34;;;;;;;8.52;6.75;;;;;;;15.45;83.64;100861.50;4901513;29;20052;-75
2021/07/12 07:57:03;;;;;;;6.60;5.72;;;;;;;15.59;83.01;100865.97;4903583;29;20414;-77
2021/07/12 07:59:30;;;;;;;9.93;6.75;;;;;;;15.50;83.21;100853.31;4900481;29;20056;-75
2021/07/12 08:01:58;;;;;;;6.55;5.20;;;;;;;15.50;83.30;100862.09;4901789;29;20059;-75
2021/07/12 08:04:26;;;;;;;7.55;6.15;;;;;;;15.52;83.57;100864.63;4901945;29;20053;-77
2021/07/12 08:06:52;;;;;;;6.72;4.95;;;;;;;15.51;83.07;100863.78;4901866;29;20112;-76
2021/07/12 08:09:18;;;;;;;6.50;5.03;;;;;;;15.50;83.61;100859.47;4902036;29;20052;-75
2021/07/12 08:11:48;;;;;;;7.25;5.07;;;;;;;15.47;82.84;100849.09;4888543;29;20071;-75
2021/07/12 08:14:18;;;;;;;9.07;5.70;;;;;;;15.57;83.42;100864.38;4907242;29;20052;-75
2021/07/12 08:16:48;;;;;;;5.57;4.68;;;;;;;15.56;83.33;100860.88;4909592;29;20049;-75
2021/07/12 08:19:17;;;;;;;5.45;4.25;;;;;;;15.62;83.20;100857.88;4906859;29;20071;-74
2021/07/12 08:21:44;;;;;;;4.72;3.92;;;;;;;15.73;82.59;100851.19;4905044;29;20489;-75
2021/07/12 08:24:11;;;;;;;4.35;3.58;;;;;;;15.67;82.02;100833.94;4901878;29;20048;-76
2021/07/12 08:26:37;;;;;;;4.70;2.72;;;;;;;15.89;81.70;100848.53;4900014;29;20056;-76
2021/07/12 08:29:04;;;;;;;4.72;3.13;;;;;;;15.94;82.01;100851.75;4899467;29;20048;-76
2021/07/12 08:31:31;;;;;;;4.20;2.70;;;;;;;15.97;81.70;100854.22;4899903;29;20536;-76
2021/07/12 08:33:57;;;;;;;3.22;2.55;;;;;;;16.06;81.36;100853.66;4898184;29;20505;-76
2021/07/12 08:36:24;;;;;;;4.00;2.67;;;;;;;16.06;80.79;100831.75;4914615;29;20044;-76
2021/07/12 08:38:51;;;;;;;3.53;2.35;;;;;;;16.27;80.10;100853.31;4901788;29;20056;-76
2021/07/12 08:41:21;;;;;;;4.38;2.75;;;;;;;16.39;80.54;100843.84;4900592;29;20095;-75
2021/07/12 08:43:47;;;;;;;4.32;2.92;;;;;;;16.48;79.94;100846.78;4900680;29;20048;-75
2021/07/12 08:46:14;;;;;;;3.85;2.60;;;;;;;16.54;79.88;100842.06;4900807;29;20064;-76
2021/07/12 08:48:41;;;;;;;4.10;2.58;;;;;;;16.70;79.27;100834.91;4900346;29;20052;-76
2021/07/12 08:51:10;;;;;;;3.30;2.47;;;;;;;16.79;78.66;100836.97;4900152;29;20049;-76
2021/07/12 08:53:37;;;;;;;3.28;2.33;;;;;;;17.06;78.08;100844.13;4899001;29;20051;-76
2021/07/12 08:56:04;;;;;;;2.70;2.17;;;;;;;17.09;77.41;100843.13;4898897;29;20060;-76
2021/07/12 08:58:34;;;;;;;2.60;2.00;;;;;;;17.18;77.05;100831.13;4914034;29;20436;-76
2021/07/12 09:01:04;;;;;;;4.85;2.50;;;;;;;17.36;76.54;100837.84;4898884;29;20057;-76
2021/07/12 09:03:34;;;;;;;4.57;2.38;;;;;;;17.45;76.16;100841.69;4899829;29;20056;-76
2021/07/12 09:06:06;;;;;;;3.58;2.38;;;;;;;17.72;75.73;100838.19;4899349;29;20048;-76
2021/07/12 09:08:55;;;;;;;3.70;2.45;;;;;;;17.83;74.46;100840.94;4898679;29;20060;-76
2021/07/12 09:11:25;;;;;;;3.47;2.60;;;;;;;17.77;74.00;100838.72;4899791;29;20048;-76
2021/07/12 09:13:56;;;;;;;3.92;2.92;;;;;;;17.68;75.36;100829.63;4898889;29;20052;-76
2021/07/12 09:16:28;;;;;;;4.82;3.03;;;;;;;17.79;76.15;100833.34;4897895;29;20053;-76
2021/07/12 09:19:13;;;;;;;7.38;2.70;;;;;;;17.87;74.40;100820.47;4898784;29;20052;-76
2021/07/12 09:21:46;;;;;;;4.22;2.88;;;;;;;18.01;74.81;100830.97;4899284;29;20049;-75
2021/07/12 09:24:17;;;;;;;4.25;2.50;;;;;;;18.45;73.82;100834.16;4898777;29;20049;-76
2021/07/12 09:26:51;;;;;;;4.15;2.78;;;;;;;18.33;72.47;100816.53;4897655;29;20052;-76
2021/07/12 09:29:23;;;;;;;4.22;2.58;;;;;;;18.36;73.18;100833.00;4898244;29;20049;-76
2021/07/12 09:31:51;;;;;;;3.25;2.45;;;;;;;18.37;73.00;100818.84;4900084;29;20044;-76
2021/07/12 09:34:18;;;;;;;3.35;2.67;;;;;;;18.58;72.34;100825.38;4897453;29;20045;-76
2021/07/12 09:36:45;;;;;;;3.67;2.60;;;;;;;18.83;71.93;100827.16;4913378;29;20568;-76
2021/07/12 09:39:25;;;;;;;7.43;2.70;;;;;;;18.93;71.83;100824.72;4899260;29;20140;-76
2021/07/12 09:42:01;;;;;;;4.22;2.97;;;;;;;19.06;70.80;100827.34;4898380;29;20059;-75
2021/07/12 09:44:31;;;;;;;3.90;3.05;;;;;;;19.35;70.17;100825.22;4898971;29;20493;-77
2021/07/12 09:47:14;;;;;;;3.83;2.85;;;;;;;19.48;70.92;100822.50;4899085;29;20493;-77
2021/07/12 09:49:41;;;;;;;3.65;2.67;;;;;;;19.52;69.49;100827.47;4900580;29;20052;-77
2021/07/12 09:52:10;;;;;;;3.60;2.40;;;;;;;19.65;69.51;100830.06;4912972;29;20040;-76
2021/07/12 09:54:38;;;;;;;3.55;2.17;;;;;;;19.86;68.24;100828.59;4913567;29;20056;-76
2021/07/12 09:57:18;;;;;;;4.63;2.65;;;;;;;20.05;67.47;100828.03;4900719;29;20500;-76
2021/07/12 10:00:07;;;;;;;3.65;2.42;;;;;;;19.79;66.49;100830.84;4899110;29;20057;-78
2021/07/12 10:02:40;;;;;;;4.20;2.33;;;;;;;19.86;67.70;100826.78;4896883;29;20085;-75
2021/07/12 10:05:12;;;;;;;3.72;2.50;;;;;;;20.03;66.77;100825.53;4897611;29;20059;-75
2021/07/12 10:07:38;;;;;;;4.47;2.90;;;;;;;20.00;66.44;100825.72;4898621;29;20049;-76
2021/07/12 10:10:13;;;;;;;3.97;2.75;;;;;;;19.98;65.48;100822.34;4898332;29;20565;-76
2021/07/12 10:12:43;;;;;;;3.95;2.60;;;;;;;20.19;66.85;100811.06;4898050;29;20132;-76
2021/07/12 10:15:11;;;;;;;3.65;2.50;;;;;;;20.36;67.63;100817.72;4899431;29;20048;-76
2021/07/12 10:17:39;;;;;;;3.65;2.50;;;;;;;20.46;66.63;100814.22;4898555;29;20044;-76
2021/07/12 10:20:06;;;;;;;2.60;2.30;;;;;;;20.68;65.26;100817.84;4899157;29;20044;-75
2021/07/12 10:22:35;;;;;;;3.55;2.00;;;;;;;20.69;63.09;100821.34;4900684;29;20098;-76
2021/07/12 10:25:10;;;;;;;2.42;1.85;;;;;;;20.91;62.63;100812.53;4900826;29;20044;-77
2021/07/12 10:27:51;;;;;;;2.88;2.15;;;;;;;21.13;62.72;100819.63;4901613;29;20057;-78
2021/07/12 10:30:34;;;;;;;3.28;2.10;;;;;;;21.31;62.39;100825.22;4900657;29;20067;-77
2021/07/12 10:33:09;;;;;;;2.88;2.40;;;;;;;21.38;61.58;100818.44;4899452;29;20489;-78
2021/07/12 10:35:47;;;;;;;3.22;2.22;;;;;;;21.36;62.99;100820.41;4901716;29;20056;-78
2021/07/12 10:38:19;;;;;;;4.47;2.55;;;;;;;21.40;62.58;100821.84;4881682;29;20131;-78
2021/07/12 10:40:51;;;;;;;2.47;1.95;;;;;;;21.37;60.81;100819.44;4881873;29;20060;-78
2021/07/12 10:43:33;;;;;;;3.80;2.60;;;;;;;21.40;61.73;100827.16;4890387;29;20071;-78
2021/07/12 10:45:59;;;;;;;2.88;2.10;;;;;;;21.35;61.05;100818.72;4901247;29;20057;-77
2021/07/12 10:48:35;;;;;;;3.17;2.53;;;;;;;21.34;61.96;100819.69;4900444;29;20063;-77
2021/07/12 10:51:25;;;;;;;3.58;2.40;;;;;;;21.63;60.65;100819.13;4900686;29;20049;-76
2021/07/12 10:54:01;;;;;;;2.20;1.80;;;;;;;21.56;58.51;100821.44;4900848;29;20068;-76
2021/07/12 10:56:45;;;;;;;3.53;2.17;;;;;;;21.49;59.85;100835.34;4901001;29;20172;-73
2021/07/12 10:59:29;;;;;;;3.13;2.00;;;;;;;21.39;59.66;100819.31;4901384;29;20424;-75
2021/07/12 11:01:58;;;;;;;3.13;2.20;;;;;;;21.65;59.91;100827.78;4901661;29;20056;-75
2021/07/12 11:04:38;;;;;;;3.38;2.33;;;;;;;21.62;59.58;100827.22;4914943;29;20059;-75
2021/07/12 11:07:10;;;;;;;2.45;1.90;;;;;;;21.62;59.80;100825.41;4901720;29;20394;-76
2021/07/12 11:09:50;;;;;;;2.25;1.95;;;;;;;21.64;57.69;100830.59;4901126;29;20064;-77
2021/07/12 11:12:51;;;;;;;2.60;2.10;;;;;;;21.57;60.16;100833.75;4899507;29;20055;-77
2021/07/12 11:15:24;;;;;;;3.28;2.10;;;;;;;21.54;59.31;100835.78;4913560;29;20084;-77
2021/07/12 11:18:01;;;;;;;4.03;2.92;;;;;;;21.32;60.41;100842.03;4899975;29;20049;-77
2021/07/12 11:20:56;;;;;;;3.28;2.50;;;;;;;21.30;60.75;100841.28;4898617;29;20075;-77
2021/07/12 11:23:38;;;;;;;3.47;2.80;;;;;;;21.08;62.20;100841.22;4898218;29;20048;-78
2021/07/12 11:26:24;;;;;;;2.90;2.20;;;;;;;21.36;60.45;100846.09;4900461;29;20056;-77
2021/07/12 11:28:52;;;;;;;3.97;2.40;;;;;;;21.21;61.19;100843.72;4899376;29;20052;-76
2021/07/12 11:31:56;;;;;;;3.92;2.35;;;;;;;20.93;61.03;100829.19;4898592;29;20059;-77